Time;durP1;ratioP1;P1;durP2;ratioP2;P2;SDS_P1;SDS_P2;PMS_P1;PMS_P2;Temp;Humidity;BMP_temperature;BMP_pressure;BME280_temperature;BME280_humidity;BME280_pressure;Samples;Min_cycle;Max_cycle;Signal;HPM_P1;HPM_P2
2022/07/05 00:01:43;;;;;;;;;;;;;;;;;;5038551;28;19924;-86
2022/07/05 00:04:09;;;;;;;;;;;;;;;;;;5038548;28;19970;-86
2022/07/05 00:06:34;;;;;;;;;;;;;;;;;;5043821;28;19909;-86
2022/07/05 00:08:59;;;;;;;;;;;;;;;;;;5034144;28;19917;-86
2022/07/05 00:11:25;;;;;;;;;;;;;;;;;;5020580;28;19925;-87
2022/07/05 00:13:50;;;;;;;;;;;;;;;;;;5037934;28;19917;-88
2022/07/05 00:16:15;;;;;;;;;;;;;;;;;;5037242;28;19921;-87
2022/07/05 00:18:41;;;;;;;;;;;;;;;;;;5019448;28;20313;-86
2022/07/05 00:21:06;;;;;;;;;;;;;;;;;;5037566;28;20319;-87
2022/07/05 00:23:31;;;;;;;;;;;;;;;;;;5019303;28;20294;-86
2022/07/05 00:25:57;;;;;;;;;;;;;;;;;;5037170;28;19999;-86
2022/07/05 00:28:22;;;;;;;;;;;;;;;;;;5013314;28;19924;-86
2022/07/05 00:30:47;;;;;;;;;;;;;;;;;;5037008;28;19921;-86
2022/07/05 00:33:32;;;;;;;;;;;;;;;;;;5038508;28;19921;-87
2022/07/05 00:35:57;;;;;;;;;;;;;;;;;;5021243;28;19924;-86
2022/07/05 00:38:23;;;;;;;;;;;;;;;;;;5037732;28;19917;-87
2022/07/05 00:40:49;;;;;;;;;;;;;;;;;;5037611;28;19967;-87
2022/07/05 00:43:14;;;;;;;;;;;;;;;;;;5037079;28;19921;-86
2022/07/05 00:45:39;;;;;;;;;;;;;;;;;;5037431;28;19917;-86
2022/07/05 00:48:05;;;;;;;;;;;;;;;;;;5037436;28;20315;-87
2022/07/05 00:50:30;;;;;;;;;;;;;;;;;;5049408;28;20366;-87
2022/07/05 00:52:55;;;;;;;;;;;;;;;;;;5037209;28;19917;-86
2022/07/05 00:55:21;;;;;;;;;;;;;;;;;;5018818;28;20001;-86
2022/07/05 00:57:46;;;;;;;;;;;;;;;;;;5036660;28;19924;-87
2022/07/05 01:00:11;;;;;;;;;;;;;;;;;;5019058;28;19924;-86
2022/07/05 01:02:37;;;;;;;;;;;;;;;;;;5036472;28;19924;-86
2022/07/05 01:05:02;;;;;;;;;;;;;;;;;;5036927;28;19967;-86
2022/07/05 01:07:28;;;;;;;;;;;;;;;;;;5046361;28;19917;-85
2022/07/05 01:09:53;;;;;;;;;;;;;;;;;;5031420;28;19940;-86
2022/07/05 01:12:19;;;;;;;;;;;;;;;;;;5032133;28;19921;-85
2022/07/05 01:14:44;;;;;;;;;;;;;;;;;;5027549;28;19975;-87
2022/07/05 01:17:09;;;;;;;;;;;;;;;;;;5040812;28;19948;-86
2022/07/05 01:19:35;;;;;;;;;;;;;;;;;;5018335;28;20331;-87
2022/07/05 01:22:03;;;;;;;;;;;;;;;;;;5035920;28;19924;-86
2022/07/05 01:24:28;;;;;;;;;;;;;;;;;;5018803;28;19924;-86
2022/07/05 01:26:54;;;;;;;;;;;;;;;;;;5035822;28;19917;-87
2022/07/05 01:29:19;;;;;;;;;;;;;;;;;;5023319;28;19927;-86
2022/07/05 01:31:44;;;;;;;;;;;;;;;;;;5032761;28;19952;-86
2022/07/05 01:34:10;;;;;;;;;;;;;;;;;;5021635;28;19924;-86
2022/07/05 01:36:35;;;;;;;;;;;;;;;;;;5035980;28;19924;-86
2022/07/05 01:39:01;;;;;;;;;;;;;;;;;;5035397;28;19917;-87
2022/07/05 01:41:26;;;;;;;;;;;;;;;;;;5035388;28;19940;-87
2022/07/05 01:43:52;;;;;;;;;;;;;;;;;;5002171;28;19917;-86
2022/07/05 01:46:18;;;;;;;;;;;;;;;;;;5018561;28;20354;-85
2022/07/05 01:48:43;;;;;;;;;;;;;;;;;;5018870;28;19918;-87
2022/07/05 01:51:22;;;;;;;;;;;;;;;;;;5035914;28;20331;-86
2022/07/05 01:53:49;;;;;;;;;;;;;;;;;;5034144;28;20322;-86
2022/07/05 01:56:14;;;;;;;;;;;;;;;;;;5038953;28;19975;-86
2022/07/05 01:58:40;;;;;;;;;;;;;;;;;;5001045;28;19917;-87
2022/07/05 02:01:05;;;;;;;;;;;;;;;;;;5017791;28;19917;-86
2022/07/05 02:03:30;;;;;;;;;;;;;;;;;;5018397;28;19975;-87
2022/07/05 02:05:56;;;;;;;;;;;;;;;;;;5017681;28;20173;-86
2022/07/05 02:08:37;;;;;;;;;;;;;;;;;;5017051;28;19921;-85
2022/07/05 02:11:03;;;;;;;;;;;;;;;;;;5035122;28;19971;-86
2022/07/05 02:13:28;;;;;;;;;;;;;;;;;;5024294;28;19905;-85
2022/07/05 02:15:54;;;;;;;;;;;;;;;;;;5044790;28;19928;-86
2022/07/05 02:18:19;;;;;;;;;;;;;;;;;;5001186;28;19992;-86
2022/07/05 02:20:45;;;;;;;;;;;;;;;;;;5017686;28;19917;-86
2022/07/05 02:23:10;;;;;;;;;;;;;;;;;;5035433;28;20354;-88
2022/07/05 02:25:38;;;;;;;;;;;;;;;;;;5034961;28;19921;-86
2022/07/05 02:28:04;;;;;;;;;;;;;;;;;;5035715;28;19925;-86
2022/07/05 02:30:29;;;;;;;;;;;;;;;;;;5034951;28;19917;-86
2022/07/05 02:32:55;;;;;;;;;;;;;;;;;;5036359;28;20382;-86
2022/07/05 02:35:20;;;;;;;;;;;;;;;;;;5015472;28;19967;-86
2022/07/05 02:37:45;;;;;;;;;;;;;;;;;;5016897;28;19921;-87
2022/07/05 02:40:11;;;;;;;;;;;;;;;;;;5033443;28;19924;-86
2022/07/05 02:42:37;;;;;;;;;;;;;;;;;;5033145;28;19932;-86
2022/07/05 02:45:03;;;;;;;;;;;;;;;;;;5034949;28;19928;-87
2022/07/05 02:47:31;;;;;;;;;;;;;;;;;;5034692;28;20020;-87
2022/07/05 02:50:03;;;;;;;;;;;;;;;;;;5017022;28;20326;-86
2022/07/05 02:52:29;;;;;;;;;;;;;;;;;;5035040;28;19918;-86
2022/07/05 02:54:54;;;;;;;;;;;;;;;;;;5036961;28;20334;-86
2022/07/05 02:57:19;;;;;;;;;;;;;;;;;;5014664;28;19987;-86
2022/07/05 02:59:45;;;;;;;;;;;;;;;;;;5036160;28;19921;-86
2022/07/05 03:02:10;;;;;;;;;;;;;;;;;;5034478;28;19956;-86
2022/07/05 03:04:35;;;;;;;;;;;;;;;;;;5034561;28;19917;-84
2022/07/05 03:07:01;;;;;;;;;;;;;;;;;;5034355;28;19917;-88
2022/07/05 03:09:26;;;;;;;;;;;;;;;;;;5016565;28;19924;-85
2022/07/05 03:11:51;;;;;;;;;;;;;;;;;;5016930;28;19917;-85
2022/07/05 03:14:17;;;;;;;;;;;;;;;;;;5034441;28;20350;-86
2022/07/05 03:16:44;;;;;;;;;;;;;;;;;;5028344;28;19928;-86
2022/07/05 03:19:09;;;;;;;;;;;;;;;;;;5035434;28;20272;-86
2022/07/05 03:21:35;;;;;;;;;;;;;;;;;;5034100;28;19917;-86
2022/07/05 03:24:00;;;;;;;;;;;;;;;;;;5034464;28;19921;-85
2022/07/05 03:26:25;;;;;;;;;;;;;;;;;;5034566;28;19917;-86
2022/07/05 03:28:51;;;;;;;;;;;;;;;;;;5033967;28;20262;-86
2022/07/05 03:31:16;;;;;;;;;;;;;;;;;;5034280;28;19918;-86
2022/07/05 03:33:41;;;;;;;;;;;;;;;;;;5034233;28;19917;-86
2022/07/05 03:36:07;;;;;;;;;;;;;;;;;;5020864;28;19913;-86
2022/07/05 03:38:33;;;;;;;;;;;;;;;;;;5053911;28;19921;-86
2022/07/05 03:40:58;;;;;;;;;;;;;;;;;;5036777;28;19917;-86
2022/07/05 03:43:23;;;;;;;;;;;;;;;;;;5033850;28;19932;-86
2022/07/05 03:45:49;;;;;;;;;;;;;;;;;;5033938;28;19924;-86
2022/07/05 03:48:14;;;;;;;;;;;;;;;;;;5034161;28;19917;-86
2022/07/05 03:50:39;;;;;;;;;;;;;;;;;;5016495;28;20328;-86
2022/07/05 03:53:05;;;;;;;;;;;;;;;;;;5037233;28;19918;-86
2022/07/05 03:55:30;;;;;;;;;;;;;;;;;;5003219;28;19921;-86
2022/07/05 03:57:55;;;;;;;;;;;;;;;;;;5045129;28;19905;-85
2022/07/05 04:00:21;;;;;;;;;;;;;;;;;;5043392;28;20271;-86
2022/07/05 04:02:46;;;;;;;;;;;;;;;;;;5037296;28;20354;-86
2022/07/05 04:05:12;;;;;;;;;;;;;;;;;;5037432;28;19916;-86
2022/07/05 04:07:49;;;;;;;;;;;;;;;;;;5037337;28;19917;-85
2022/07/05 04:10:14;;;;;;;;;;;;;;;;;;5019734;28;20026;-86
2022/07/05 04:12:40;;;;;;;;;;;;;;;;;;5019758;28;19952;-86
2022/07/05 04:15:05;;;;;;;;;;;;;;;;;;5037377;28;19925;-86
2022/07/05 04:17:31;;;;;;;;;;;;;;;;;;5038073;28;19920;-85
2022/07/05 04:19:56;;;;;;;;;;;;;;;;;;5037433;28;19964;-85
2022/07/05 04:22:21;;;;;;;;;;;;;;;;;;5038385;28;19939;-85
2022/07/05 04:27:34;;;;;;;;;;;;;;;;;;5037806;28;20405;-85
2022/07/05 04:30:00;;;;;;;;;;;;;;;;;;5019514;28;19917;-86
2022/07/05 04:32:27;;;;;;;;;;;;;;;;;;5037555;28;19943;-86
2022/07/05 04:34:52;;;;;;;;;;;;;;;;;;5037076;28;19917;-86
2022/07/05 04:37:18;;;;;;;;;;;;;;;;;;5037165;28;19924;-86
2022/07/05 04:39:43;;;;;;;;;;;;;;;;;;5024557;28;19922;-86
2022/07/05 04:42:08;;;;;;;;;;;;;;;;;;5038407;28;19932;-85
2022/07/05 04:44:34;;;;;;;;;;;;;;;;;;5036611;28;19940;-85
2022/07/05 04:46:59;;;;;;;;;;;;;;;;;;5036595;28;20027;-86
2022/07/05 04:49:24;;;;;;;;;;;;;;;;;;5036435;28;19917;-86
2022/07/05 04:51:50;;;;;;;;;;;;;;;;;;5018809;28;19917;-86
2022/07/05 04:54:15;;;;;;;;;;;;;;;;;;5036334;28;19957;-86
2022/07/05 04:56:40;;;;;;;;;;;;;;;;;;5036486;28;19996;-86
2022/07/05 04:59:06;;;;;;;;;;;;;;;;;;5036288;28;20173;-86
2022/07/05 05:01:31;;;;;;;;;;;;;;;;;;5048322;28;19943;-85
2022/07/05 05:03:56;;;;;;;;;;;;;;;;;;5035665;28;19917;-86
2022/07/05 05:06:21;;;;;;;;;;;;;;;;;;5036054;28;19925;-86
2022/07/05 05:08:47;;;;;;;;;;;;;;;;;;5019302;28;19917;-86
2022/07/05 05:11:12;;;;;;;;;;;;;;;;;;5018590;28;19917;-86
2022/07/05 05:13:37;;;;;;;;;;;;;;;;;;5036185;28;19917;-82
2022/07/05 05:16:03;;;;;;;;;;;;;;;;;;5036207;28;20251;-81
2022/07/05 05:18:28;;;;;;;;;;;;;;;;;;5036095;28;19925;-82
2022/07/05 05:20:54;;;;;;;;;;;;;;;;;;5037556;28;20010;-79
2022/07/05 05:23:20;;;;;;;;;;;;;;;;;;5044484;28;19979;-80
2022/07/05 05:26:01;;;;;;;;;;;;;;;;;;5024510;28;19925;-82
2022/07/05 05:28:27;;;;;;;;;;;;;;;;;;5018270;28;19974;-80
2022/07/05 05:30:52;;;;;;;;;;;;;;;;;;5035995;28;19921;-78
2022/07/05 05:33:17;;;;;;;;;;;;;;;;;;5035956;28;19917;-79
2022/07/05 05:35:43;;;;;;;;;;;;;;;;;;5035760;28;19921;-79
2022/07/05 05:38:11;;;;;;;;;;;;;;;;;;5036791;28;19917;-80
2022/07/05 05:40:41;;;;;;;;;;;;;;;;;;5036713;28;19964;-80
2022/07/05 05:43:06;;;;;;;;;;;;;;;;;;5050650;28;19959;-80
2022/07/05 05:45:31;;;;;;;;;;;;;;;;;;5037686;28;19917;-80
2022/07/05 05:47:57;;;;;;;;;;;;;;;;;;5036805;28;19924;-80
2022/07/05 05:50:23;;;;;;;;;;;;;;;;;;5035934;28;19978;-80
2022/07/05 05:52:49;;;;;;;;;;;;;;;;;;5035766;28;19923;-80
2022/07/05 05:55:14;;;;;;;;;;;;;;;;;;5018194;28;20300;-80
2022/07/05 05:57:40;;;;;;;;;;;;;;;;;;5001319;28;19995;-81
2022/07/05 06:00:05;;;;;;;;;;;;;;;;;;5035820;28;19918;-82
2022/07/05 06:02:31;;;;;;;;;;;;;;;;;;5048207;28;19959;-79
2022/07/05 06:04:56;;;;;;;;;;;;;;;;;;5038211;28;19955;-80
2022/07/05 06:07:21;;;;;;;;;;;;;;;;;;5018544;28;19983;-80
2022/07/05 06:09:47;;;;;;;;;;;;;;;;;;5036273;28;20388;-79
2022/07/05 06:12:13;;;;;;;;;;;;;;;;;;5034934;28;19917;-79
2022/07/05 06:14:38;;;;;;;;;;;;;;;;;;5001211;28;20059;-79
2022/07/05 06:17:03;;;;;;;;;;;;;;;;;;5017902;28;19917;-80
2022/07/05 06:19:29;;;;;;;;;;;;;;;;;;5035653;28;20429;-79
2022/07/05 06:21:54;;;;;;;;;;;;;;;;;;5037778;28;19960;-80
2022/07/05 06:24:19;;;;;;;;;;;;;;;;;;5040901;28;20376;-80
2022/07/05 06:26:45;;;;;;;;;;;;;;;;;;5035313;28;20298;-80
2022/07/05 06:29:10;;;;;;;;;;;;;;;;;;5016909;28;19913;-80
2022/07/05 06:31:36;;;;;;;;;;;;;;;;;;5035454;28;19917;-80
2022/07/05 06:34:01;;;;;;;;;;;;;;;;;;5034900;28;20258;-80
2022/07/05 06:36:29;;;;;;;;;;;;;;;;;;5034917;28;19913;-80
2022/07/05 06:38:55;;;;;;;;;;;;;;;;;;5034724;28;20008;-80
2022/07/05 06:41:20;;;;;;;;;;;;;;;;;;5035485;28;20028;-80
2022/07/05 06:43:45;;;;;;;;;;;;;;;;;;5011120;28;19928;-81
2022/07/05 06:46:11;;;;;;;;;;;;;;;;;;5034844;28;20332;-78
2022/07/05 06:48:36;;;;;;;;;;;;;;;;;;5034651;28;20335;-79
2022/07/05 06:51:01;;;;;;;;;;;;;;;;;;5034924;28;19917;-78
2022/07/05 06:53:27;;;;;;;;;;;;;;;;;;5035275;28;20314;-88
2022/07/05 06:55:52;;;;;;;;;;;;;;;;;;5037739;28;20331;-87
2022/07/05 06:58:18;;;;;;;;;;;;;;;;;;5037666;28;19999;-89
2022/07/05 07:00:43;;;;;;;;;;;;;;;;;;5036942;28;19960;-86
2022/07/05 07:03:08;;;;;;;;;;;;;;;;;;5021374;28;19917;-87
2022/07/05 07:05:34;;;;;;;;;;;;;;;;;;5024013;28;19917;-87
2022/07/05 07:10:43;;;;;;;;;;;;;;;;;;5037846;28;19974;-87
2022/07/05 07:13:08;;;;;;;;;;;;;;;;;;5039344;28;19917;-85
2022/07/05 07:15:37;;;;;;;;;;;;;;;;;;5049793;28;20326;-86
2022/07/05 07:18:03;;;;;;;;;;;;;;;;;;5039901;28;19938;-87
2022/07/05 07:20:28;;;;;;;;;;;;;;;;;;5039955;28;20335;-84
2022/07/05 07:22:54;;;;;;;;;;;;;;;;;;5064378;28;19905;-86
2022/07/05 07:25:25;;;;;;;;;;;;;;;;;;5056745;28;19942;-86
2022/07/05 07:27:51;;;;;;;;;;;;;;;;;;5077528;28;19928;-85
2022/07/05 07:30:19;;;;;;;;;;;;;;;;;;5077148;28;20393;-86
2022/07/05 07:32:45;;;;;;;;;;;;;;;;;;5045619;28;19981;-87
2022/07/05 07:35:10;;;;;;;;;;;;;;;;;;5045135;28;20334;-89
2022/07/05 07:37:38;;;;;;;;;;;;;;;;;;5046272;28;19971;-87
2022/07/05 07:40:04;;;;;;;;;;;;;;;;;;5044853;28;19917;-88
2022/07/05 07:42:29;;;;;;;;;;;;;;;;;;5062533;28;19979;-87
2022/07/05 07:44:54;;;;;;;;;;;;;;;;;;5030166;28;20008;-87
2022/07/05 07:47:20;;;;;;;;;;;;;;;;;;5062799;28;19917;-86
2022/07/05 07:49:51;;;;;;;;;;;;;;;;;;5060871;28;20365;-86
2022/07/05 07:52:16;;;;;;;;;;;;;;;;;;5059812;28;19932;-88
2022/07/05 07:54:45;;;;;;;;;;;;;;;;;;5062387;28;19928;-88
2022/07/05 07:57:10;;;;;;;;;;;;;;;;;;5060161;28;19980;-88
2022/07/05 07:59:36;;;;;;;;;;;;;;;;;;5061358;28;19964;-87
2022/07/05 08:02:04;;;;;;;;;;;;;;;;;;5046760;28;19916;-87
2022/07/05 08:04:30;;;;;;;;;;;;;;;;;;5047055;28;19923;-86
2022/07/05 08:06:55;;;;;;;;;;;;;;;;;;5041890;28;19916;-88
2022/07/05 08:09:20;;;;;;;;;;;;;;;;;;5041445;28;19928;-87
2022/07/05 08:11:46;;;;;;;;;;;;;;;;;;5042854;28;19967;-89
2022/07/05 08:14:11;;;;;;;;;;;;;;;;;;5045029;28;19924;-87
2022/07/05 08:16:37;;;;;;;;;;;;;;;;;;5059056;28;19925;-87
2022/07/05 08:21:47;;;;;;;;;;;;;;;;;;5063716;28;19924;-87
2022/07/05 08:24:13;;;;;;;;;;;;;;;;;;5045959;28;20326;-87
2022/07/05 08:26:38;;;;;;;;;;;;;;;;;;5058377;28;19935;-88
2022/07/05 08:29:04;;;;;;;;;;;;;;;;;;5062017;28;19917;-89
2022/07/05 08:31:30;;;;;;;;;;;;;;;;;;5048321;28;20244;-87
2022/07/05 08:33:56;;;;;;;;;;;;;;;;;;5070050;28;19928;-88
2022/07/05 08:36:21;;;;;;;;;;;;;;;;;;5072216;28;19925;-87
2022/07/05 08:38:46;;;;;;;;;;;;;;;;;;5048086;28;19994;-89
2022/07/05 08:41:12;;;;;;;;;;;;;;;;;;5059811;28;19956;-87
2022/07/05 08:43:39;;;;;;;;;;;;;;;;;;5046617;28;19928;-88
2022/07/05 08:46:06;;;;;;;;;;;;;;;;;;5062125;28;19917;-87
2022/07/05 08:48:31;;;;;;;;;;;;;;;;;;5024236;28;19917;-87
2022/07/05 08:50:56;;;;;;;;;;;;;;;;;;5040547;28;20250;-87
2022/07/05 08:53:22;;;;;;;;;;;;;;;;;;5023581;28;20294;-88
2022/07/05 08:55:47;;;;;;;;;;;;;;;;;;5059253;28;19916;-88
2022/07/05 08:58:12;;;;;;;;;;;;;;;;;;5058710;28;20331;-80
2022/07/05 09:00:42;;;;;;;;;;;;;;;;;;5056628;28;20398;-81
2022/07/05 09:03:07;;;;;;;;;;;;;;;;;;5035646;28;19941;-81
2022/07/05 09:05:36;;;;;;;;;;;;;;;;;;5056824;28;19917;-80
2022/07/05 09:08:02;;;;;;;;;;;;;;;;;;5056496;28;20011;-81
2022/07/05 09:10:28;;;;;;;;;;;;;;;;;;5038468;28;20016;-81
2022/07/05 09:12:53;;;;;;;;;;;;;;;;;;5056052;28;19917;-81
2022/07/05 09:15:19;;;;;;;;;;;;;;;;;;5056450;28;19974;-80
2022/07/05 09:17:44;;;;;;;;;;;;;;;;;;5038363;28;19916;-83
2022/07/05 09:20:11;;;;;;;;;;;;;;;;;;5056110;28;19921;-82
2022/07/05 09:22:46;;;;;;;;;;;;;;;;;;5057999;28;19924;-82
2022/07/05 09:25:19;;;;;;;;;;;;;;;;;;5057467;28;20299;-81
2022/07/05 09:28:03;;;;;;;;;;;;;;;;;;5055792;28;19924;-82
2022/07/05 09:30:32;;;;;;;;;;;;;;;;;;5037989;28;19918;-81
2022/07/05 09:33:01;;;;;;;;;;;;;;;;;;5056294;28;19916;-81
2022/07/05 09:35:28;;;;;;;;;;;;;;;;;;5057324;28;19967;-81
2022/07/05 09:37:53;;;;;;;;;;;;;;;;;;5057870;28;19917;-81
2022/07/05 09:40:18;;;;;;;;;;;;;;;;;;5056794;28;19916;-82
2022/07/05 09:42:44;;;;;;;;;;;;;;;;;;5062438;28;19954;-81
2022/07/05 09:45:09;;;;;;;;;;;;;;;;;;5046904;28;20011;-81
2022/07/05 09:47:34;;;;;;;;;;;;;;;;;;5055745;28;19923;-82
2022/07/05 09:50:03;;;;;;;;;;;;;;;;;;5037877;28;19917;-83
2022/07/05 09:52:29;;;;;;;;;;;;;;;;;;5056129;28;19948;-83
2022/07/05 09:55:01;;;;;;;;;;;;;;;;;;5038051;28;19917;-83
2022/07/05 09:57:27;;;;;;;;;;;;;;;;;;5055659;28;20003;-82
2022/07/05 10:00:21;;;;;;;;;;;;;;;;;;5037879;28;19948;-84
2022/07/05 10:02:48;;;;;;;;;;;;;;;;;;5051769;28;19923;-82
2022/07/05 10:05:20;;;;;;;;;;;;;;;;;;5064405;28;20309;-82
2022/07/05 10:07:47;;;;;;;;;;;;;;;;;;5055235;28;19974;-82
2022/07/05 10:10:14;;;;;;;;;;;;;;;;;;5055131;28;19923;-82
2022/07/05 10:12:40;;;;;;;;;;;;;;;;;;5055182;28;19923;-81
2022/07/05 10:15:05;;;;;;;;;;;;;;;;;;5037647;28;19913;-82
2022/07/05 10:17:31;;;;;;;;;;;;;;;;;;5037878;28;19917;-81
2022/07/05 10:19:56;;;;;;;;;;;;;;;;;;5037027;28;19920;-84
2022/07/05 10:22:22;;;;;;;;;;;;;;;;;;5037658;28;19916;-82
2022/07/05 10:24:47;;;;;;;;;;;;;;;;;;5048240;28;20006;-82
2022/07/05 10:27:13;;;;;;;;;;;;;;;;;;5055549;28;19920;-82
2022/07/05 10:29:38;;;;;;;;;;;;;;;;;;5055138;28;20366;-82
2022/07/05 10:32:04;;;;;;;;;;;;;;;;;;5055682;28;20392;-82
2022/07/05 10:34:30;;;;;;;;;;;;;;;;;;5037688;28;19924;-82
2022/07/05 10:36:55;;;;;;;;;;;;;;;;;;5037227;28;20280;-84
2022/07/05 10:39:23;;;;;;;;;;;;;;;;;;5055443;28;20038;-83
2022/07/05 10:41:48;;;;;;;;;;;;;;;;;;5054999;28;20342;-83
2022/07/05 10:44:25;;;;;;;;;;;;;;;;;;5068385;28;19943;-81
2022/07/05 10:46:51;;;;;;;;;;;;;;;;;;5055890;28;19999;-82
2022/07/05 10:49:19;;;;;;;;;;;;;;;;;;5054760;28;20336;-82
2022/07/05 10:51:45;;;;;;;;;;;;;;;;;;5055347;28;19917;-81
2022/07/05 10:54:10;;;;;;;;;;;;;;;;;;5037351;28;19928;-81
2022/07/05 10:56:38;;;;;;;;;;;;;;;;;;5038094;28;20282;-83
2022/07/05 10:59:09;;;;;;;;;;;;;;;;;;5037362;28;19917;-82
2022/07/05 11:01:35;;;;;;;;;;;;;;;;;;5056147;28;19917;-82
2022/07/05 11:04:00;;;;;;;;;;;;;;;;;;5065432;28;19924;-82
2022/07/05 11:06:26;;;;;;;;;;;;;;;;;;5062029;28;20249;-83
2022/07/05 11:09:00;;;;;;;;;;;;;;;;;;5058169;28;20388;-83
2022/07/05 11:11:26;;;;;;;;;;;;;;;;;;5058622;28;19920;-82
2022/07/05 11:13:53;;;;;;;;;;;;;;;;;;5059039;28;20228;-83
2022/07/05 11:16:22;;;;;;;;;;;;;;;;;;5059018;28;19967;-80
2022/07/05 11:18:49;;;;;;;;;;;;;;;;;;5058166;28;20314;-82
2022/07/05 11:21:18;;;;;;;;;;;;;;;;;;5040890;28;20247;-83
2022/07/05 11:23:43;;;;;;;;;;;;;;;;;;5060506;28;19917;-83
2022/07/05 11:26:08;;;;;;;;;;;;;;;;;;5051204;28;20011;-81
2022/07/05 11:28:43;;;;;;;;;;;;;;;;;;5041613;28;20265;-82
2022/07/05 11:31:09;;;;;;;;;;;;;;;;;;5057762;28;19916;-82
2022/07/05 11:33:42;;;;;;;;;;;;;;;;;;5057943;28;19923;-82
2022/07/05 11:36:28;;;;;;;;;;;;;;;;;;5058110;28;20010;-83
2022/07/05 11:39:12;;;;;;;;;;;;;;;;;;5057428;28;19917;-82
2022/07/05 11:41:38;;;;;;;;;;;;;;;;;;5039613;28;19960;-82
2022/07/05 11:44:04;;;;;;;;;;;;;;;;;;5060524;28;19916;-81
2022/07/05 11:46:29;;;;;;;;;;;;;;;;;;5052643;28;19921;-82
2022/07/05 11:48:54;;;;;;;;;;;;;;;;;;5040883;28;19924;-82
2022/07/05 11:51:20;;;;;;;;;;;;;;;;;;5039118;28;19917;-82
2022/07/05 11:53:45;;;;;;;;;;;;;;;;;;5058715;28;20322;-81
2022/07/05 11:56:11;;;;;;;;;;;;;;;;;;5060086;28;19967;-82
2022/07/05 11:58:36;;;;;;;;;;;;;;;;;;5057607;28;20012;-85
2022/07/05 12:01:01;;;;;;;;;;;;;;;;;;5057591;28;20011;-87
2022/07/05 12:03:27;;;;;;;;;;;;;;;;;;5057310;28;19917;-86
2022/07/05 12:05:52;;;;;;;;;;;;;;;;;;5067907;28;19914;-88
2022/07/05 12:08:21;;;;;;;;;;;;;;;;;;5069571;28;19916;-86
2022/07/05 12:13:30;;;;;;;;;;;;;;;;;;5057004;28;20400;-85
2022/07/05 12:16:00;;;;;;;;;;;;;;;;;;5057168;28;19952;-86
2022/07/05 12:18:25;;;;;;;;;;;;;;;;;;5057043;28;20003;-87
2022/07/05 12:20:50;;;;;;;;;;;;;;;;;;5057151;28;19952;-87
2022/07/05 12:23:16;;;;;;;;;;;;;;;;;;5057358;28;19960;-87
2022/07/05 12:25:41;;;;;;;;;;;;;;;;;;5043127;28;19988;-86
2022/07/05 12:28:08;;;;;;;;;;;;;;;;;;5074275;28;19909;-86
2022/07/05 12:30:34;;;;;;;;;;;;;;;;;;5038971;28;20408;-86
2022/07/05 12:33:00;;;;;;;;;;;;;;;;;;5038771;28;19916;-86
2022/07/05 12:35:29;;;;;;;;;;;;;;;;;;5056875;28;19917;-87
2022/07/05 12:37:55;;;;;;;;;;;;;;;;;;5056976;28;19916;-87
2022/07/05 12:40:21;;;;;;;;;;;;;;;;;;5056813;28;19927;-86
2022/07/05 12:42:46;;;;;;;;;;;;;;;;;;5018932;28;20004;-86
2022/07/05 12:45:12;;;;;;;;;;;;;;;;;;5036753;28;20416;-85
2022/07/05 12:47:53;;;;;;;;;;;;;;;;;;5045973;28;19925;-86
2022/07/05 12:50:19;;;;;;;;;;;;;;;;;;5044465;28;19917;-86
2022/07/05 12:58:33;;;;;;;;;;;;;;;;;;5035231;28;19939;-87
2022/07/05 13:00:58;;;;;;;;;;;;;;;;;;5036082;28;20399;-86
2022/07/05 13:03:24;;;;;;;;;;;;;;;;;;5036593;28;20393;-87
2022/07/05 13:05:59;;;;;;;;;;;;;;;;;;5035424;28;20653;-87
2022/07/05 13:08:28;;;;;;;;;;;;;;;;;;5047707;28;20024;-85
2022/07/05 13:10:54;;;;;;;;;;;;;;;;;;5039345;28;20263;-87
2022/07/05 13:13:20;;;;;;;;;;;;;;;;;;5036196;28;19917;-86
2022/07/05 13:15:45;;;;;;;;;;;;;;;;;;5034803;28;19924;-86
2022/07/05 13:18:10;;;;;;;;;;;;;;;;;;5035832;28;19921;-87
2022/07/05 13:20:36;;;;;;;;;;;;;;;;;;5035749;28;20008;-87
2022/07/05 13:23:01;;;;;;;;;;;;;;;;;;5018397;28;19925;-87
2022/07/05 13:25:26;;;;;;;;;;;;;;;;;;5035324;28;19921;-88
2022/07/05 13:27:53;;;;;;;;;;;;;;;;;;5037049;28;19917;-87
2022/07/05 13:30:18;;;;;;;;;;;;;;;;;;5041127;28;19921;-87
2022/07/05 13:32:43;;;;;;;;;;;;;;;;;;5036841;28;19948;-88
2022/07/05 13:35:09;;;;;;;;;;;;;;;;;;5036284;28;19913;-87
2022/07/05 13:37:34;;;;;;;;;;;;;;;;;;5034546;28;19917;-86
2022/07/05 13:40:00;;;;;;;;;;;;;;;;;;5034502;28;20259;-87
2022/07/05 13:42:25;;;;;;;;;;;;;;;;;;5042399;28;20357;-85
2022/07/05 13:44:50;;;;;;;;;;;;;;;;;;5047982;28;19938;-85
2022/07/05 13:47:15;;;;;;;;;;;;;;;;;;5075910;28;19984;-83
2022/07/05 13:49:42;;;;;;;;;;;;;;;;;;5068503;28;20012;-85
2022/07/05 13:52:07;;;;;;;;;;;;;;;;;;5046272;28;19929;-84
2022/07/05 13:54:33;;;;;;;;;;;;;;;;;;5041038;28;19917;-85
2022/07/05 13:56:58;;;;;;;;;;;;;;;;;;5056901;28;19967;-86
2022/07/05 13:59:23;;;;;;;;;;;;;;;;;;5055209;28;19920;-85
2022/07/05 14:01:49;;;;;;;;;;;;;;;;;;5055543;28;19917;-86
2022/07/05 14:04:14;;;;;;;;;;;;;;;;;;5056069;28;19988;-85
2022/07/05 14:06:39;;;;;;;;;;;;;;;;;;5055463;28;19990;-86
2022/07/05 14:09:05;;;;;;;;;;;;;;;;;;5055211;28;19946;-86
2022/07/05 14:11:30;;;;;;;;;;;;;;;;;;5070474;28;19988;-85
2022/07/05 14:13:56;;;;;;;;;;;;;;;;;;5024844;28;19923;-85
2022/07/05 14:16:22;;;;;;;;;;;;;;;;;;5037940;28;19917;-85
2022/07/05 14:18:47;;;;;;;;;;;;;;;;;;5055102;28;19974;-86
2022/07/05 14:21:15;;;;;;;;;;;;;;;;;;5054849;28;19921;-86
2022/07/05 14:23:46;;;;;;;;;;;;;;;;;;5055440;28;20296;-87
2022/07/05 14:26:11;;;;;;;;;;;;;;;;;;5021110;28;20251;-87
2022/07/05 14:28:37;;;;;;;;;;;;;;;;;;5057965;28;19924;-87
2022/07/05 14:31:02;;;;;;;;;;;;;;;;;;5070822;28;19983;-86
2022/07/05 14:33:27;;;;;;;;;;;;;;;;;;5070174;28;19948;-86
2022/07/05 14:35:53;;;;;;;;;;;;;;;;;;5067893;28;19923;-85
2022/07/05 14:38:18;;;;;;;;;;;;;;;;;;5064247;28;19917;-87
2022/07/05 14:40:44;;;;;;;;;;;;;;;;;;5038357;28;19917;-85
2022/07/05 14:43:09;;;;;;;;;;;;;;;;;;5054437;28;19920;-86
2022/07/05 14:45:34;;;;;;;;;;;;;;;;;;5036953;28;19917;-87
2022/07/05 14:48:00;;;;;;;;;;;;;;;;;;5057358;28;19923;-86
2022/07/05 14:50:25;;;;;;;;;;;;;;;;;;5056961;28;20262;-86
2022/07/05 14:52:50;;;;;;;;;;;;;;;;;;5070585;28;19920;-87
2022/07/05 14:55:16;;;;;;;;;;;;;;;;;;5066011;28;20327;-88
2022/07/05 14:57:41;;;;;;;;;;;;;;;;;;5061037;28;19939;-86
2022/07/05 15:00:08;;;;;;;;;;;;;;;;;;5054339;28;20323;-86
2022/07/05 15:02:33;;;;;;;;;;;;;;;;;;5054647;28;19923;-87
2022/07/05 15:04:58;;;;;;;;;;;;;;;;;;5054644;28;19917;-85
2022/07/05 15:07:24;;;;;;;;;;;;;;;;;;5054450;28;19917;-87
2022/07/05 15:09:49;;;;;;;;;;;;;;;;;;5054126;28;20227;-87
2022/07/05 15:12:14;;;;;;;;;;;;;;;;;;5057093;28;19921;-87
2022/07/05 15:14:39;;;;;;;;;;;;;;;;;;5069509;28;19947;-87
2022/07/05 15:17:05;;;;;;;;;;;;;;;;;;5058004;28;19974;-87
2022/07/05 15:19:30;;;;;;;;;;;;;;;;;;5054447;28;19921;-87
2022/07/05 15:21:55;;;;;;;;;;;;;;;;;;5054212;28;20334;-87
2022/07/05 15:24:21;;;;;;;;;;;;;;;;;;5054270;28;19924;-87
2022/07/05 15:26:46;;;;;;;;;;;;;;;;;;5036307;28;19917;-87
2022/07/05 15:29:12;;;;;;;;;;;;;;;;;;5054325;28;19917;-87
2022/07/05 15:31:37;;;;;;;;;;;;;;;;;;5054519;28;19917;-87
2022/07/05 15:34:03;;;;;;;;;;;;;;;;;;5062031;28;19908;-86
2022/07/05 15:36:31;;;;;;;;;;;;;;;;;;5065822;28;20046;-86
2022/07/05 15:38:57;;;;;;;;;;;;;;;;;;5052714;28;19952;-86
2022/07/05 15:41:23;;;;;;;;;;;;;;;;;;5035040;28;19963;-86
2022/07/05 15:43:48;;;;;;;;;;;;;;;;;;5031719;28;19922;-86
2022/07/05 15:46:14;;;;;;;;;;;;;;;;;;5033576;28;20330;-87
2022/07/05 15:48:40;;;;;;;;;;;;;;;;;;5036217;28;19924;-86
2022/07/05 15:51:06;;;;;;;;;;;;;;;;;;5038208;28;19917;-86
2022/07/05 15:53:31;;;;;;;;;;;;;;;;;;5039419;28;20299;-86
2022/07/05 15:55:59;;;;;;;;;;;;;;;;;;5053883;28;19917;-86
2022/07/05 15:58:25;;;;;;;;;;;;;;;;;;5048107;28;20294;-86
2022/07/05 16:00:51;;;;;;;;;;;;;;;;;;5041364;28;19917;-86
2022/07/05 16:03:16;;;;;;;;;;;;;;;;;;5037071;28;19978;-86
2022/07/05 16:05:41;;;;;;;;;;;;;;;;;;5035202;28;19975;-86
2022/07/05 16:08:07;;;;;;;;;;;;;;;;;;5036304;28;19920;-87
2022/07/05 16:10:32;;;;;;;;;;;;;;;;;;5037217;28;19975;-88
2022/07/05 16:12:58;;;;;;;;;;;;;;;;;;5037526;28;19960;-86
2022/07/05 16:18:07;;;;;;;;;;;;;;;;;;5051761;28;19952;-87
2022/07/05 16:20:32;;;;;;;;;;;;;;;;;;5044606;28;19918;-88
2022/07/05 16:22:58;;;;;;;;;;;;;;;;;;5037430;28;19917;-88
2022/07/05 16:25:23;;;;;;;;;;;;;;;;;;5037147;28;19917;-88
2022/07/05 16:27:48;;;;;;;;;;;;;;;;;;5037600;28;20000;-87
2022/07/05 16:30:14;;;;;;;;;;;;;;;;;;5037242;28;19924;-88
2022/07/05 16:32:39;;;;;;;;;;;;;;;;;;5037545;28;19924;-87
2022/07/05 16:35:05;;;;;;;;;;;;;;;;;;5037174;28;19917;-88
2022/07/05 16:37:30;;;;;;;;;;;;;;;;;;5052094;28;19932;-87
2022/07/05 16:39:55;;;;;;;;;;;;;;;;;;5048191;28;19925;-88
2022/07/05 16:42:20;;;;;;;;;;;;;;;;;;5045022;28;20331;-88
2022/07/05 16:44:46;;;;;;;;;;;;;;;;;;5039217;28;19966;-88
2022/07/05 16:47:11;;;;;;;;;;;;;;;;;;5056521;28;19929;-88
2022/07/05 16:49:37;;;;;;;;;;;;;;;;;;5056576;28;19974;-89
2022/07/05 16:52:02;;;;;;;;;;;;;;;;;;5038365;28;19917;-88
2022/07/05 16:54:27;;;;;;;;;;;;;;;;;;5056622;28;20011;-87
2022/07/05 16:56:53;;;;;;;;;;;;;;;;;;5059635;28;20249;-87
2022/07/05 16:59:19;;;;;;;;;;;;;;;;;;5069411;28;19921;-87